createdAt,value
2023-11-21T00:00:13.175Z,9.52
2023-11-21T00:03:01.181Z,10.15
2023-11-21T00:05:29.112Z,10.10
2023-11-21T00:07:56.559Z,10.55
2023-11-21T00:10:24.460Z,12.75
2023-11-21T00:12:51.874Z,10.68
2023-11-21T00:15:19.986Z,12.80
2023-11-21T00:17:47.882Z,10.52
2023-11-21T00:20:15.509Z,12.63
2023-11-21T00:22:43.109Z,15.65
2023-11-21T00:25:11.441Z,9.90
2023-11-21T00:27:39.208Z,10.73
2023-11-21T00:30:07.955Z,10.82
2023-11-21T00:32:37.111Z,12.75
2023-11-21T00:35:07.210Z,12.73
2023-11-21T00:37:34.677Z,10.05
2023-11-21T00:40:11.655Z,7.53
2023-11-21T00:42:39.162Z,6.90
2023-11-21T00:45:07.931Z,10.75
2023-11-21T00:47:35.543Z,8.32
2023-11-21T00:50:03.257Z,10.23
2023-11-21T00:52:31.050Z,8.27
2023-11-21T00:55:01.213Z,8.65
2023-11-21T00:57:28.730Z,9.20
2023-11-21T00:59:56.876Z,6.72
2023-11-21T01:02:24.270Z,8.82
2023-11-21T01:04:52.062Z,8.63
2023-11-21T01:07:21.859Z,14.10
2023-11-21T01:09:49.949Z,11.32
2023-11-21T01:12:18.774Z,7.03
2023-11-21T01:14:46.693Z,8.77
2023-11-21T01:17:14.143Z,7.22
2023-11-21T01:19:42.763Z,9.18
2023-11-21T01:22:10.546Z,7.93
2023-11-21T01:24:38.294Z,7.05
2023-11-21T01:27:05.829Z,7.80
2023-11-21T01:29:33.596Z,7.20
2023-11-21T01:32:00.971Z,7.55
2023-11-21T01:34:28.800Z,7.63
2023-11-21T01:36:56.085Z,7.82
2023-11-21T01:39:25.334Z,8.70
2023-11-21T01:41:53.272Z,8.45
2023-11-21T01:44:20.983Z,8.50
2023-11-21T01:46:49.391Z,8.93
2023-11-21T01:49:17.462Z,6.35
2023-11-21T01:51:50.349Z,7.55
2023-11-21T01:54:20.098Z,8.02
2023-11-21T01:56:48.394Z,6.63
2023-11-21T01:59:22.788Z,8.55
2023-11-21T02:01:51.687Z,8.73
2023-11-21T02:04:21.383Z,10.65
2023-11-21T02:06:48.983Z,7.97
2023-11-21T02:09:16.869Z,7.07
2023-11-21T02:11:45.302Z,5.80
2023-11-21T02:14:15.048Z,8.00
2023-11-21T02:16:42.704Z,9.32
2023-11-21T02:19:26.645Z,7.20
2023-11-21T02:21:55.020Z,6.07
2023-11-21T02:24:23.751Z,5.85
2023-11-21T02:26:54.894Z,6.47
2023-11-21T02:29:23.486Z,7.72
2023-11-21T02:31:55.931Z,8.45
2023-11-21T02:34:26.642Z,6.25
2023-11-21T02:36:55.334Z,5.40
2023-11-21T02:39:26.178Z,6.72
2023-11-21T02:41:53.647Z,5.75
2023-11-21T02:44:21.404Z,8.55
2023-11-21T02:46:49.085Z,6.85
2023-11-21T02:49:16.824Z,7.03
2023-11-21T02:51:44.779Z,5.97
2023-11-21T02:54:12.612Z,6.78
2023-11-21T02:56:41.309Z,6.03
2023-11-21T02:59:09.023Z,5.45
2023-11-21T03:01:36.510Z,5.75
2023-11-21T03:04:04.598Z,7.53
2023-11-21T03:06:32.138Z,5.95
2023-11-21T03:08:59.823Z,5.63
2023-11-21T03:11:27.490Z,8.05
2023-11-21T03:13:55.254Z,6.28
2023-11-21T03:16:22.864Z,6.32
2023-11-21T03:18:51.338Z,8.68
2023-11-21T03:21:18.993Z,7.55
2023-11-21T03:23:46.729Z,8.70
2023-11-21T03:26:14.507Z,9.55
2023-11-21T03:28:42.387Z,6.75
2023-11-21T03:31:10.375Z,5.55
2023-11-21T03:33:38.228Z,6.38
2023-11-21T03:36:05.854Z,6.53
2023-11-21T03:38:33.442Z,5.00
2023-11-21T03:41:00.862Z,7.20
2023-11-21T03:43:30.603Z,7.50
2023-11-21T03:45:57.995Z,13.02
2023-11-21T03:48:25.519Z,5.53
2023-11-21T03:50:52.782Z,7.47
2023-11-21T03:53:20.381Z,5.82
2023-11-21T03:55:47.875Z,7.28
2023-11-21T03:58:15.564Z,5.03
2023-11-21T04:00:42.863Z,6.68
2023-11-21T04:03:10.598Z,7.38
2023-11-21T04:05:38.007Z,7.63
2023-11-21T04:08:05.701Z,5.82
2023-11-21T04:10:33.178Z,7.85
2023-11-21T04:13:01.655Z,8.00
2023-11-21T04:15:29.112Z,5.72
2023-11-21T04:17:58.008Z,6.68
2023-11-21T04:20:25.627Z,7.50
2023-11-21T04:22:53.313Z,6.43
2023-11-21T04:25:20.964Z,6.40
2023-11-21T04:27:48.886Z,8.15
2023-11-21T04:30:16.363Z,6.22
2023-11-21T04:32:44.118Z,6.55
2023-11-21T04:35:11.933Z,8.18
2023-11-21T04:37:39.696Z,7.65
2023-11-21T04:40:08.513Z,7.55
2023-11-21T04:42:37.580Z,10.82
2023-11-21T04:45:09.961Z,6.20
2023-11-21T04:47:37.761Z,7.20
2023-11-21T04:50:07.244Z,6.10
2023-11-21T04:52:35.088Z,8.13
2023-11-21T04:55:03.814Z,10.90
2023-11-21T04:57:32.415Z,12.68
2023-11-21T04:59:59.876Z,10.57
2023-11-21T05:02:33.990Z,8.93
2023-11-21T05:05:05.427Z,8.45
2023-11-21T05:07:33.821Z,8.10
2023-11-21T05:10:01.194Z,8.52
2023-11-21T05:12:28.918Z,8.00
2023-11-21T05:14:57.185Z,6.70
2023-11-21T05:17:24.838Z,9.13
2023-11-21T05:19:53.033Z,10.93
2023-11-21T05:22:21.496Z,10.68
2023-11-21T05:24:48.839Z,5.88
2023-11-21T05:27:17.277Z,8.70
2023-11-21T05:29:44.543Z,9.43
2023-11-21T05:32:12.265Z,9.10
2023-11-21T05:34:39.732Z,9.18
2023-11-21T05:37:07.482Z,12.88
2023-11-21T05:39:34.833Z,7.13
2023-11-21T05:42:02.973Z,7.90
2023-11-21T05:44:30.334Z,8.93
2023-11-21T05:47:00.112Z,10.90
2023-11-21T05:49:27.783Z,10.48
2023-11-21T05:51:55.514Z,9.20
2023-11-21T05:54:23.850Z,8.40
2023-11-21T05:56:51.524Z,8.07
2023-11-21T05:59:20.689Z,11.85
2023-11-21T06:01:49.655Z,7.13
2023-11-21T06:04:17.103Z,12.80
2023-11-21T06:06:45.381Z,8.70
2023-11-21T06:09:13.281Z,9.18
2023-11-21T06:11:41.002Z,11.48
2023-11-21T06:14:10.438Z,11.75
2023-11-21T06:16:38.165Z,10.15
2023-11-21T06:19:06.642Z,8.38
2023-11-21T06:21:35.152Z,9.05
2023-11-21T06:24:02.840Z,6.97
2023-11-21T06:26:30.418Z,12.98
2023-11-21T06:28:58.321Z,9.98
2023-11-21T06:31:26.107Z,8.32
2023-11-21T06:33:54.177Z,9.48
2023-11-21T06:36:22.148Z,6.15
2023-11-21T06:38:49.554Z,5.85
2023-11-21T06:41:17.167Z,9.60
2023-11-21T06:43:47.920Z,8.05
2023-11-21T06:46:20.312Z,8.93
2023-11-21T06:51:15.530Z,8.05
2023-11-21T06:53:42.858Z,9.80
2023-11-21T06:56:18.175Z,7.05
2023-11-21T06:58:47.120Z,11.00
2023-11-21T07:01:14.996Z,9.65
2023-11-21T07:03:42.820Z,14.43
2023-11-21T07:06:10.597Z,10.20
2023-11-21T07:08:38.394Z,9.93
2023-11-21T07:11:06.195Z,9.35
2023-11-21T07:13:33.564Z,8.05
2023-11-21T07:16:01.421Z,10.05
2023-11-21T07:18:28.919Z,7.15
2023-11-21T07:20:56.613Z,5.75
2023-11-21T07:23:24.161Z,6.75
2023-11-21T07:25:51.871Z,7.05
2023-11-21T07:28:19.385Z,6.78
2023-11-21T07:30:46.977Z,5.90
2023-11-21T07:33:14.306Z,4.50
2023-11-21T07:35:42.017Z,4.40
2023-11-21T07:38:09.360Z,4.93
2023-11-21T07:40:37.586Z,7.97
2023-11-21T07:43:04.873Z,20.25
2023-11-21T07:45:32.550Z,5.53
2023-11-21T07:48:02.102Z,5.88
2023-11-21T07:50:29.966Z,6.28
2023-11-21T07:52:59.150Z,7.18
2023-11-21T07:55:27.921Z,5.35
2023-11-21T07:57:55.235Z,4.13
2023-11-21T08:00:22.907Z,6.15
2023-11-21T08:02:50.399Z,4.25
2023-11-21T08:05:25.019Z,6.65
2023-11-21T08:07:55.912Z,5.57
2023-11-21T08:10:23.762Z,6.13
2023-11-21T08:12:51.958Z,6.38
2023-11-21T08:15:19.920Z,3.30
2023-11-21T08:17:48.199Z,4.63
2023-11-21T08:20:19.338Z,5.55
2023-11-21T08:22:49.082Z,2.88
2023-11-21T08:25:18.645Z,4.25
2023-11-21T08:27:46.109Z,4.97
2023-11-21T08:30:15.507Z,3.97
2023-11-21T08:32:42.867Z,4.15
2023-11-21T08:35:13.617Z,4.78
2023-11-21T08:37:41.506Z,3.72
2023-11-21T08:40:10.750Z,7.20
2023-11-21T08:42:38.775Z,6.53
2023-11-21T08:45:07.280Z,5.78
2023-11-21T08:47:34.717Z,3.10
2023-11-21T08:50:03.187Z,5.90
2023-11-21T08:52:30.885Z,6.95
2023-11-21T08:54:58.609Z,5.82
2023-11-21T08:57:26.881Z,6.97
2023-11-21T08:59:56.770Z,7.07
2023-11-21T09:02:24.752Z,7.45
2023-11-21T09:04:53.886Z,10.63
2023-11-21T09:07:21.800Z,9.50
2023-11-21T09:09:49.996Z,6.50
2023-11-21T09:12:18.174Z,4.68
2023-11-21T09:14:45.771Z,4.70
2023-11-21T09:17:13.302Z,5.43
2023-11-21T09:19:41.848Z,5.75
2023-11-21T09:22:09.281Z,3.67
2023-11-21T09:24:38.013Z,4.03
2023-11-21T09:27:06.623Z,2.72
2023-11-21T09:29:34.368Z,4.10
2023-11-21T09:32:02.572Z,3.63
2023-11-21T09:34:30.499Z,5.20
2023-11-21T09:36:57.898Z,2.92
2023-11-21T09:39:25.810Z,6.50
2023-11-21T09:42:00.150Z,5.10
2023-11-21T09:44:45.190Z,3.13
2023-11-21T09:47:17.497Z,9.07
2023-11-21T09:49:50.687Z,5.50
2023-11-21T09:52:26.861Z,3.63
2023-11-21T09:54:56.139Z,4.60
2023-11-21T09:57:24.794Z,6.53
2023-11-21T10:00:00.607Z,3.83
2023-11-21T10:02:33.878Z,10.57
2023-11-21T10:05:02.136Z,2.58
2023-11-21T10:07:32.083Z,3.03
2023-11-21T10:10:01.997Z,4.75
2023-11-21T10:12:31.011Z,4.00
2023-11-21T10:15:01.855Z,4.72
2023-11-21T10:17:37.538Z,4.68
2023-11-21T10:20:12.677Z,6.20
2023-11-21T10:22:44.502Z,4.88
2023-11-21T10:25:15.608Z,5.07
2023-11-21T10:27:44.332Z,5.68
2023-11-21T10:30:17.235Z,6.03
2023-11-21T10:32:44.843Z,8.95
2023-11-21T10:35:13.743Z,4.05
2023-11-21T10:37:41.681Z,3.60
2023-11-21T10:40:13.693Z,5.55
2023-11-21T10:45:16.204Z,5.75
2023-11-21T10:47:45.481Z,4.18
2023-11-21T10:50:13.376Z,6.00
2023-11-21T10:52:48.068Z,5.45
2023-11-21T10:55:22.803Z,5.50
2023-11-21T10:57:53.676Z,3.50
2023-11-21T11:00:25.316Z,4.60
2023-11-21T11:02:55.722Z,3.55
2023-11-21T11:05:25.138Z,3.60
2023-11-21T11:08:03.204Z,5.93
2023-11-21T11:10:31.148Z,4.13
2023-11-21T11:12:59.632Z,4.38
2023-11-21T11:15:28.634Z,8.45
2023-11-21T11:17:59.697Z,4.63
2023-11-21T11:20:34.727Z,4.45
2023-11-21T11:23:14.354Z,7.93
2023-11-21T11:25:42.057Z,6.95
2023-11-21T11:28:15.512Z,4.15
2023-11-21T11:31:06.794Z,4.88
2023-11-21T11:33:49.750Z,5.13
2023-11-21T11:36:26.896Z,7.63
2023-11-21T11:38:57.235Z,3.42
2023-11-21T11:41:33.585Z,7.57
2023-11-21T11:44:05.656Z,3.50
2023-11-21T11:46:46.696Z,2.83
2023-11-21T11:49:29.428Z,3.42
2023-11-21T11:52:35.686Z,4.68
2023-11-21T11:55:05.443Z,3.92
2023-11-21T11:57:36.254Z,4.53
2023-11-21T12:00:17.945Z,6.30
2023-11-21T12:02:46.755Z,7.20
2023-11-21T12:05:24.836Z,6.30
2023-11-21T12:07:58.666Z,4.88
2023-11-21T12:10:41.858Z,3.90
2023-11-21T12:13:11.731Z,4.43
2023-11-21T12:15:42.062Z,3.70
2023-11-21T12:18:09.861Z,7.03
2023-11-21T12:20:40.496Z,3.60
2023-11-21T12:23:10.690Z,5.25
2023-11-21T12:25:39.489Z,3.95
2023-11-21T12:28:07.431Z,3.65
2023-11-21T12:30:37.301Z,4.28
2023-11-21T12:33:05.744Z,5.63
2023-11-21T12:35:35.535Z,3.92
2023-11-21T12:38:06.284Z,4.22
2023-11-21T12:40:34.139Z,3.60
2023-11-21T12:43:05.566Z,3.72
2023-11-21T12:45:33.502Z,2.83
2023-11-21T12:48:10.264Z,4.07
2023-11-21T12:50:39.272Z,4.07
2023-11-21T12:53:13.784Z,3.40
2023-11-21T12:55:43.395Z,10.13
2023-11-21T12:58:12.856Z,2.78
2023-11-21T13:00:44.037Z,3.42
2023-11-21T13:03:17.204Z,8.38
2023-11-21T13:05:49.216Z,4.13
2023-11-21T13:08:21.356Z,4.10
2023-11-21T13:10:55.577Z,4.72
2023-11-21T13:13:25.564Z,4.03
2023-11-21T13:15:57.491Z,5.25
2023-11-21T13:18:28.090Z,8.50
2023-11-21T13:21:00.976Z,7.00
2023-11-21T13:23:30.575Z,4.97
2023-11-21T13:26:02.772Z,6.80
2023-11-21T13:28:36.362Z,3.58
2023-11-21T13:31:11.796Z,4.57
2023-11-21T13:33:42.507Z,5.50
2023-11-21T13:36:11.306Z,5.78
2023-11-21T13:38:44.072Z,5.40
2023-11-21T13:41:13.849Z,3.78
2023-11-21T13:43:45.229Z,5.00
2023-11-21T13:46:18.503Z,4.60
2023-11-21T13:48:52.508Z,6.90
2023-11-21T13:51:21.630Z,7.97
2023-11-21T13:53:52.223Z,5.78
2023-11-21T13:56:27.925Z,4.38
2023-11-21T13:58:57.014Z,6.97
2023-11-21T14:01:31.973Z,5.70
2023-11-21T14:04:20.920Z,9.38
2023-11-21T14:06:55.978Z,5.68
2023-11-21T14:09:26.951Z,6.82
2023-11-21T14:11:58.111Z,4.72
2023-11-21T14:14:27.163Z,4.18
2023-11-21T14:16:55.074Z,6.00
2023-11-21T14:19:26.836Z,5.40
2023-11-21T14:21:54.651Z,4.03
2023-11-21T14:24:24.847Z,5.03
2023-11-21T14:26:52.574Z,6.50
2023-11-21T14:29:25.168Z,4.57
2023-11-21T14:31:54.930Z,3.53
2023-11-21T14:34:23.542Z,4.47
2023-11-21T14:36:51.725Z,4.82
2023-11-21T14:39:27.859Z,3.28
2023-11-21T14:42:00.620Z,3.58
2023-11-21T14:44:34.100Z,4.03
2023-11-21T14:47:04.583Z,4.78
2023-11-21T14:49:43.001Z,3.28
2023-11-21T14:52:27.144Z,4.93
2023-11-21T14:55:14.742Z,4.93
2023-11-21T14:57:42.181Z,3.53
2023-11-21T15:00:30.490Z,6.60
2023-11-21T15:02:58.005Z,3.03
2023-11-21T15:05:28.269Z,3.00
2023-11-21T15:07:58.342Z,5.13
2023-11-21T15:10:39.525Z,4.60
2023-11-21T15:13:11.396Z,3.75
2023-11-21T15:15:40.792Z,3.33
2023-11-21T15:18:08.312Z,4.80
2023-11-21T15:20:36.278Z,9.35
2023-11-21T15:23:05.910Z,6.32
2023-11-21T15:25:33.901Z,5.50
2023-11-21T15:28:01.292Z,7.65
2023-11-21T15:30:33.605Z,7.53
2023-11-21T15:35:31.992Z,11.00
2023-11-21T15:38:00.993Z,10.07
2023-11-21T15:40:29.141Z,8.93
2023-11-21T15:42:56.543Z,7.57
2023-11-21T15:45:27.209Z,5.38
2023-11-21T15:47:54.932Z,6.55
2023-11-21T15:50:22.640Z,7.82
2023-11-21T15:52:57.347Z,5.72
2023-11-21T15:55:26.951Z,10.68
2023-11-21T15:57:54.370Z,6.07
2023-11-21T16:00:24.150Z,6.47
2023-11-21T16:02:52.180Z,7.72
2023-11-21T16:05:20.373Z,6.80
2023-11-21T16:07:48.484Z,7.32
2023-11-21T16:10:16.980Z,7.10
2023-11-21T16:12:44.350Z,7.90
2023-11-21T16:15:13.212Z,9.52
2023-11-21T16:17:43.037Z,7.45
2023-11-21T16:20:14.009Z,11.63
2023-11-21T16:22:42.083Z,8.57
2023-11-21T16:25:14.291Z,7.25
2023-11-21T16:30:10.106Z,7.85
2023-11-21T16:32:38.062Z,9.13
2023-11-21T16:35:06.405Z,14.10
2023-11-21T16:37:33.857Z,13.75
2023-11-21T16:40:01.592Z,11.98
2023-11-21T16:42:31.632Z,12.77
2023-11-21T16:44:59.454Z,9.77
2023-11-21T16:47:29.425Z,14.25
2023-11-21T16:49:59.531Z,13.90
2023-11-21T16:52:27.504Z,15.38
2023-11-21T16:54:55.482Z,11.15
2023-11-21T16:57:23.042Z,12.65
2023-11-21T16:59:52.162Z,11.13
2023-11-21T17:02:20.529Z,10.10
2023-11-21T17:04:50.567Z,8.82
2023-11-21T17:07:24.203Z,7.43
2023-11-21T17:09:52.244Z,7.20
2023-11-21T17:12:20.035Z,9.32
2023-11-21T17:14:50.499Z,6.50
2023-11-21T17:17:18.405Z,9.23
2023-11-21T17:19:46.179Z,12.63
2023-11-21T17:22:13.777Z,10.43
2023-11-21T17:24:43.763Z,9.55
2023-11-21T17:27:11.938Z,12.50
2023-11-21T17:29:40.132Z,12.18
2023-11-21T17:32:07.580Z,12.35
2023-11-21T17:34:35.406Z,9.82
2023-11-21T17:37:05.343Z,10.13
2023-11-21T17:39:33.606Z,9.77
2023-11-21T17:42:01.999Z,10.23
2023-11-21T17:44:29.870Z,7.75
2023-11-21T17:46:57.426Z,7.70
2023-11-21T17:49:25.374Z,7.97
2023-11-21T17:51:52.974Z,8.48
2023-11-21T17:54:20.920Z,7.95
2023-11-21T17:56:50.522Z,11.52
2023-11-21T17:59:18.262Z,10.45
2023-11-21T18:01:48.179Z,9.10
2023-11-21T18:04:16.043Z,11.65
2023-11-21T18:06:44.096Z,12.38
2023-11-21T18:09:12.123Z,9.95
2023-11-21T18:11:39.959Z,9.80
2023-11-21T18:14:11.122Z,10.27
2023-11-21T18:16:39.748Z,8.88
2023-11-21T18:19:08.074Z,13.85
2023-11-21T18:21:39.006Z,10.05
2023-11-21T18:24:08.627Z,12.00
2023-11-21T18:26:36.147Z,10.55
2023-11-21T18:29:04.084Z,10.10
2023-11-21T18:31:31.808Z,8.82
2023-11-21T18:33:59.577Z,9.10
2023-11-21T18:36:27.010Z,8.60
2023-11-21T18:38:55.045Z,8.63
2023-11-21T18:41:24.395Z,7.00
2023-11-21T18:43:52.313Z,7.78
2023-11-21T18:46:21.192Z,6.82
2023-11-21T18:48:50.450Z,8.23
2023-11-21T18:51:18.066Z,5.93
2023-11-21T18:53:45.704Z,8.10
2023-11-21T18:56:22.468Z,8.70
2023-11-21T18:58:50.311Z,9.93
2023-11-21T19:01:32.080Z,9.13
2023-11-21T19:06:28.304Z,10.85
2023-11-21T19:08:56.167Z,8.90
2023-11-21T19:11:24.304Z,7.10
2023-11-21T19:13:53.330Z,10.05
2023-11-21T19:16:22.319Z,7.97
2023-11-21T19:18:52.937Z,7.82
2023-11-21T19:21:20.885Z,6.72
2023-11-21T19:23:49.953Z,7.28
2023-11-21T19:26:17.513Z,7.97
2023-11-21T19:28:45.862Z,7.20
2023-11-21T19:31:20.684Z,9.50
2023-11-21T19:33:49.320Z,18.42
2023-11-21T19:36:17.681Z,7.82
2023-11-21T19:38:46.391Z,8.13
2023-11-21T19:41:18.190Z,9.68
2023-11-21T19:43:47.038Z,7.88
2023-11-21T19:46:14.866Z,8.82
2023-11-21T19:48:43.893Z,8.52
2023-11-21T19:51:13.200Z,9.63
2023-11-21T19:53:41.022Z,9.95
2023-11-21T19:56:11.933Z,7.47
2023-11-21T19:58:43.098Z,6.78
2023-11-21T20:01:11.265Z,8.18
2023-11-21T20:03:40.153Z,7.38
2023-11-21T20:06:08.183Z,8.02
2023-11-21T20:08:36.956Z,8.95
2023-11-21T20:11:05.417Z,7.00
2023-11-21T20:13:33.737Z,7.63
2023-11-21T20:16:01.289Z,11.95
2023-11-21T20:18:32.054Z,6.78
2023-11-21T20:21:00.030Z,9.40
2023-11-21T20:23:32.663Z,10.05
2023-11-21T20:26:00.438Z,9.70
2023-11-21T20:28:28.794Z,8.93
2023-11-21T20:30:58.180Z,9.32
2023-11-21T20:33:26.359Z,9.40
2023-11-21T20:35:53.829Z,9.43
2023-11-21T20:38:23.602Z,7.38
2023-11-21T20:40:51.165Z,11.65
2023-11-21T20:43:18.888Z,9.70
2023-11-21T20:45:46.245Z,8.85
2023-11-21T20:48:15.161Z,11.02
2023-11-21T20:50:45.356Z,11.27
2023-11-21T20:53:13.398Z,11.68
2023-11-21T20:55:41.794Z,15.25
2023-11-21T20:58:12.667Z,13.45
2023-11-21T21:00:40.073Z,19.23
2023-11-21T21:03:08.414Z,12.15
2023-11-21T21:05:39.116Z,16.98
2023-11-21T21:08:07.648Z,18.58
2023-11-21T21:10:35.453Z,18.55
2023-11-21T21:13:03.670Z,10.23
2023-11-21T21:15:31.013Z,17.10
2023-11-21T21:17:58.803Z,18.17
2023-11-21T21:20:26.919Z,14.85
2023-11-21T21:22:54.749Z,22.30
2023-11-21T21:25:22.060Z,12.68
2023-11-21T21:27:50.271Z,18.75
2023-11-21T21:30:17.709Z,13.68
2023-11-21T21:32:45.326Z,15.98
2023-11-21T21:35:13.942Z,16.60
2023-11-21T21:37:41.839Z,18.45
2023-11-21T21:40:09.834Z,19.15
2023-11-21T21:42:37.677Z,19.67
2023-11-21T21:45:05.536Z,20.88
2023-11-21T21:47:33.295Z,17.23
2023-11-21T21:50:01.116Z,15.02
2023-11-21T21:52:36.600Z,19.05
2023-11-21T21:55:05.562Z,18.08
2023-11-21T21:57:33.507Z,18.23
2023-11-21T22:00:00.852Z,16.58
2023-11-21T22:02:28.806Z,18.52
2023-11-21T22:04:56.609Z,20.58
2023-11-21T22:07:24.466Z,22.73
2023-11-21T22:09:52.684Z,19.98
2023-11-21T22:12:23.024Z,19.63
2023-11-21T22:14:50.468Z,20.50
2023-11-21T22:17:18.195Z,20.15
2023-11-21T22:19:45.661Z,15.48
2023-11-21T22:22:13.537Z,18.23
2023-11-21T22:24:41.097Z,15.38
2023-11-21T22:27:08.685Z,17.70
2023-11-21T22:29:37.608Z,15.68
2023-11-21T22:32:08.690Z,15.70
2023-11-21T22:34:36.226Z,17.13
2023-11-21T22:37:04.245Z,19.17
2023-11-21T22:39:31.797Z,15.85
2023-11-21T22:41:59.467Z,18.35
2023-11-21T22:44:26.990Z,22.10
2023-11-21T22:46:54.805Z,26.50
2023-11-21T22:49:23.159Z,27.55
2023-11-21T22:51:50.782Z,28.92
2023-11-21T22:54:18.103Z,33.63
2023-11-21T22:56:45.772Z,35.83
2023-11-21T22:59:13.317Z,38.20
2023-11-21T23:01:41.091Z,37.88
2023-11-21T23:04:09.909Z,38.30
2023-11-21T23:06:37.708Z,36.22
2023-11-21T23:09:05.112Z,27.17
2023-11-21T23:11:32.916Z,27.63
2023-11-21T23:14:00.457Z,28.58
2023-11-21T23:16:28.148Z,22.42
2023-11-21T23:18:55.571Z,27.15
2023-11-21T23:21:23.294Z,26.77
2023-11-21T23:23:50.745Z,25.38
2023-11-21T23:26:19.421Z,23.00
2023-11-21T23:28:47.006Z,23.67
2023-11-21T23:31:15.322Z,26.42
2023-11-21T23:33:42.900Z,23.35
2023-11-21T23:36:10.667Z,25.80
2023-11-21T23:38:41.847Z,28.50
2023-11-21T23:41:09.932Z,23.67
2023-11-21T23:43:37.307Z,25.63
2023-11-21T23:46:05.779Z,22.48
2023-11-21T23:48:33.224Z,22.92
2023-11-21T23:51:00.987Z,23.10
2023-11-21T23:53:28.423Z,22.05
2023-11-21T23:55:56.175Z,20.80
2023-11-21T23:58:23.523Z,20.77
